OPKC/KHI METAR and TAF weather

Enter ICAO airport designator
Station Type Date Time Source
OPKC METAR 2022/05/26 06:00 UTC NOAA

OPKC 260600Z 25018KT 6000 SCT020 SCT030 32/23 Q1005 TEMPO 24015G25KT


Station Type Date Time Source
OPKC Decoded METAR 2022/05/26 06:00 UTC NOAA

Karachi Airport, Pakistan (OPKC) 24-54N 067-08E 22M
May 26, 2022 - 02:00 AM EDT / 2022.05.26 0600 UTC
Wind: from the WSW (250 degrees) at 21 MPH (18 KT):0
Visibility: 3 mile(s):0
Sky conditions: partly cloudy
Temperature: 89 F (32 C)
Heat index: 96.8 F (36.0 C):1
Dew Point: 73 F (23 C)
Relative Humidity: 59%
Pressure (altimeter): 29.68 in. Hg (1005 hPa)
ob: OPKC 260600Z 25018KT 6000 SCT020 SCT030 32/23 Q1005 TEMPO 24015G25KT
cycle: 6

Station Type Date Time Source
OPKC TAF 2022/05/26 06:30 UTC NOAA

TAF OPKC 260330Z 2606/2712 24012G22KT 5000 FU SCT030
BECMG 2618/2620 24010KT 4000 HZ SCT020
TEMPO 2700/2704 23012KT 4000 FU SCT020

Example: see airport list